This is the latest recevied weather packets stored in our database for station/object N0THY. If no packets are shown the sender has not sent any weather packets the latest 10 day(s).
| Time | Temp. | Humidity | Pressure | Rain* | Wind** | Luminosity | Snow |
|---|---|---|---|---|---|---|---|
| 1777775571 | 15.56° C | 21% | 1017.1 hPa | 0 mm | - | - | - |
| 1777774668 | 17.22° C | 18% | 1016.8 hPa | 0 mm | - | - | - |
| 1777773765 | 17.78° C | 16% | 1016.7 hPa | 0 mm | - | - | - |
| 1777772862 | 18.89° C | 15% | 1016.7 hPa | 0 mm | - | - | - |
| 1777771960 | 19.44° C | 14% | 1016.6 hPa | 0 mm | - | - | - |
| 1777771056 | 20.56° C | 12% | 1016.5 hPa | 0 mm | - | - | - |
| 1777770153 | 21.11° C | 11% | 1016.4 hPa | 0 mm | - | - | - |
| 1777769250 | 21.11° C | 10% | 1016.5 hPa | 0 mm | - | - | - |
| 1777768347 | 21.67° C | 10% | 1016.6 hPa | 0 mm | - | - | - |
| 1777766542 | 21.67° C | 9% | 1016.7 hPa | 0 mm | - | - | - |
| 1777765639 | 22.22° C | 10% | 1016.7 hPa | 0 mm | - | - | - |
| 1777764736 | 22.22° C | 9% | 1016.6 hPa | 0 mm | - | - | - |
| 1777763833 | 22.78° C | 9% | 1016.8 hPa | 0 mm | - | - | - |
| 1777762930 | 22.78° C | 9% | 1016.8 hPa | 0 mm | - | - | - |
| 1777762027 | 22.78° C | 9% | 1016.9 hPa | 0 mm | - | - | - |
| 1777761124 | 22.78° C | 10% | 1017 hPa | 0 mm | - | - | - |
| 1777760221 | 22.78° C | 10% | 1017.2 hPa | 0 mm | - | - | - |
| 1777759318 | 22.78° C | 10% | 1017.3 hPa | 0 mm | - | - | - |
| 1777758415 | 23.33° C | 10% | 1017.6 hPa | 0 mm | - | - | - |
| 1777757512 | 22.78° C | 11% | 1017.9 hPa | 0 mm | - | - | - |
| 1777756609 | 22.78° C | 10% | 1018 hPa | 0 mm | - | - | - |
| 1777755706 | 23.33° C | 9% | 1018.2 hPa | 0 mm | - | - | - |
| 1777754803 | 22.78° C | 11% | 1018.3 hPa | 0 mm | - | - | - |
| 1777753900 | 22.22° C | 12% | 1018.6 hPa | 0 mm | - | - | - |
| 1777752998 | 22.22° C | 13% | 1018.8 hPa | 0 mm | - | - | - |
* Rain since midnight (hover to see other rain measurements)
** Current wind speed in m/s (hover to see current wind gust speed)